sensor_id;sensor_type;location;lat;lon;timestamp;temperature;humidity
2967;DHT22;1493;51.496;7.210;2023-06-19T00:01:32;24.20;99.90
2967;DHT22;1493;51.496;7.210;2023-06-19T00:04:02;24.20;99.90
2967;DHT22;1493;51.496;7.210;2023-06-19T00:09:54;24.10;99.90
2967;DHT22;1493;51.496;7.210;2023-06-19T00:12:26;24.10;99.90
2967;DHT22;1493;51.496;7.210;2023-06-19T00:15:14;24.00;99.90
2967;DHT22;1493;51.496;7.210;2023-06-19T00:18:14;24.00;99.90
2967;DHT22;1493;51.496;7.210;2023-06-19T00:21:14;23.90;99.90
2967;DHT22;1493;51.496;7.210;2023-06-19T00:23:53;23.80;99.90
2967;DHT22;1493;51.496;7.210;2023-06-19T00:26:26;23.70;99.90
2967;DHT22;1493;51.496;7.210;2023-06-19T00:29:02;23.70;99.90
2967;DHT22;1493;51.496;7.210;2023-06-19T00:31:39;23.70;99.90
2967;DHT22;1493;51.496;7.210;2023-06-19T00:34:12;23.60;99.90
2967;DHT22;1493;51.496;7.210;2023-06-19T00:36:41;23.50;99.90
2967;DHT22;1493;51.496;7.210;2023-06-19T00:39:16;23.50;99.90
2967;DHT22;1493;51.496;7.210;2023-06-19T00:41:49;23.40;99.90
2967;DHT22;1493;51.496;7.210;2023-06-19T00:44:22;23.40;99.90
2967;DHT22;1493;51.496;7.210;2023-06-19T00:46:51;23.30;99.90
2967;DHT22;1493;51.496;7.210;2023-06-19T00:49:38;23.30;99.90
2967;DHT22;1493;51.496;7.210;2023-06-19T00:52:08;23.20;99.90
2967;DHT22;1493;51.496;7.210;2023-06-19T00:54:35;23.20;99.90
2967;DHT22;1493;51.496;7.210;2023-06-19T00:57:07;23.10;99.90
2967;DHT22;1493;51.496;7.210;2023-06-19T00:59:49;23.10;99.90
2967;DHT22;1493;51.496;7.210;2023-06-19T01:02:22;23.00;99.90
2967;DHT22;1493;51.496;7.210;2023-06-19T01:04:55;23.10;99.90
2967;DHT22;1493;51.496;7.210;2023-06-19T01:07:30;23.00;99.90
2967;DHT22;1493;51.496;7.210;2023-06-19T01:10:02;23.00;1.00
2967;DHT22;1493;51.496;7.210;2023-06-19T01:12:34;23.00;1.00
2967;DHT22;1493;51.496;7.210;2023-06-19T01:15:07;23.00;1.00
2967;DHT22;1493;51.496;7.210;2023-06-19T01:17:38;23.00;1.00
2967;DHT22;1493;51.496;7.210;2023-06-19T01:20:27;23.00;1.00
2967;DHT22;1493;51.496;7.210;2023-06-19T01:23:10;23.00;1.00
2967;DHT22;1493;51.496;7.210;2023-06-19T01:25:54;23.00;1.00
2967;DHT22;1493;51.496;7.210;2023-06-19T01:34:52;23.00;1.00
2967;DHT22;1493;51.496;7.210;2023-06-19T01:38:53;22.90;1.00
2967;DHT22;1493;51.496;7.210;2023-06-19T01:41:01;22.90;1.00
2967;DHT22;1493;51.496;7.210;2023-06-19T01:43:30;22.80;1.00
2967;DHT22;1493;51.496;7.210;2023-06-19T01:46:01;22.80;1.00
2967;DHT22;1493;51.496;7.210;2023-06-19T01:48:34;22.80;1.00
2967;DHT22;1493;51.496;7.210;2023-06-19T01:51:14;22.70;1.00
2967;DHT22;1493;51.496;7.210;2023-06-19T01:54:25;22.70;1.00
2967;DHT22;1493;51.496;7.210;2023-06-19T01:57:16;22.70;1.00
2967;DHT22;1493;51.496;7.210;2023-06-19T01:59:46;22.70;1.00
2967;DHT22;1493;51.496;7.210;2023-06-19T02:02:15;22.60;1.00
2967;DHT22;1493;51.496;7.210;2023-06-19T02:04:52;22.60;1.00
2967;DHT22;1493;51.496;7.210;2023-06-19T02:07:51;22.60;1.00
2967;DHT22;1493;51.496;7.210;2023-06-19T02:11:02;22.50;1.00
2967;DHT22;1493;51.496;7.210;2023-06-19T02:13:34;22.50;1.00
2967;DHT22;1493;51.496;7.210;2023-06-19T02:16:02;22.40;1.00
2967;DHT22;1493;51.496;7.210;2023-06-19T02:18:32;22.40;1.00
2967;DHT22;1493;51.496;7.210;2023-06-19T02:21:02;22.40;1.00
2967;DHT22;1493;51.496;7.210;2023-06-19T02:23:29;22.40;43.70
2967;DHT22;1493;51.496;7.210;2023-06-19T02:26:02;22.30;1.00
2967;DHT22;1493;51.496;7.210;2023-06-19T02:28:30;22.30;99.90
2967;DHT22;1493;51.496;7.210;2023-06-19T02:31:03;22.30;99.90
2967;DHT22;1493;51.496;7.210;2023-06-19T02:33:30;22.30;99.90
2967;DHT22;1493;51.496;7.210;2023-06-19T02:36:02;22.30;99.90
2967;DHT22;1493;51.496;7.210;2023-06-19T02:38:33;22.30;99.90
2967;DHT22;1493;51.496;7.210;2023-06-19T02:41:18;22.30;99.90
2967;DHT22;1493;51.496;7.210;2023-06-19T02:43:51;22.30;99.90
2967;DHT22;1493;51.496;7.210;2023-06-19T02:47:02;22.30;99.90
2967;DHT22;1493;51.496;7.210;2023-06-19T02:52:51;22.20;99.90
2967;DHT22;1493;51.496;7.210;2023-06-19T02:55:28;22.20;99.90
2967;DHT22;1493;51.496;7.210;2023-06-19T03:01:27;22.30;1.00
2967;DHT22;1493;51.496;7.210;2023-06-19T03:04:26;22.40;1.00
2967;DHT22;1493;51.496;7.210;2023-06-19T03:07:12;22.40;1.00
2967;DHT22;1493;51.496;7.210;2023-06-19T03:09:52;22.40;1.00
2967;DHT22;1493;51.496;7.210;2023-06-19T03:16:04;22.60;1.00
2967;DHT22;1493;51.496;7.210;2023-06-19T03:28:23;22.80;1.00
2967;DHT22;1493;51.496;7.210;2023-06-19T03:30:57;22.90;1.00
2967;DHT22;1493;51.496;7.210;2023-06-19T03:33:26;22.90;1.00
2967;DHT22;1493;51.496;7.210;2023-06-19T03:35:53;22.90;1.00
2967;DHT22;1493;51.496;7.210;2023-06-19T03:38:24;22.90;1.00
2967;DHT22;1493;51.496;7.210;2023-06-19T03:40:50;22.90;1.00
2967;DHT22;1493;51.496;7.210;2023-06-19T03:43:17;22.80;1.00
2967;DHT22;1493;51.496;7.210;2023-06-19T03:45:45;22.80;1.00
2967;DHT22;1493;51.496;7.210;2023-06-19T03:48:12;22.90;1.00
2967;DHT22;1493;51.496;7.210;2023-06-19T03:50:39;22.90;1.00
2967;DHT22;1493;51.496;7.210;2023-06-19T03:53:06;22.90;1.00
2967;DHT22;1493;51.496;7.210;2023-06-19T03:55:33;22.80;1.00
2967;DHT22;1493;51.496;7.210;2023-06-19T03:58:00;22.80;1.00
2967;DHT22;1493;51.496;7.210;2023-06-19T04:00:27;22.80;1.00
2967;DHT22;1493;51.496;7.210;2023-06-19T04:02:55;22.80;1.00
2967;DHT22;1493;51.496;7.210;2023-06-19T04:05:22;22.80;1.00
2967;DHT22;1493;51.496;7.210;2023-06-19T04:07:48;22.80;1.00
2967;DHT22;1493;51.496;7.210;2023-06-19T04:10:16;22.80;1.00
2967;DHT22;1493;51.496;7.210;2023-06-19T04:12:43;22.60;1.00
2967;DHT22;1493;51.496;7.210;2023-06-19T04:15:10;22.50;1.00
2967;DHT22;1493;51.496;7.210;2023-06-19T04:17:37;22.50;1.00
2967;DHT22;1493;51.496;7.210;2023-06-19T04:20:07;22.50;1.00
2967;DHT22;1493;51.496;7.210;2023-06-19T04:22:36;22.40;1.00
2967;DHT22;1493;51.496;7.210;2023-06-19T04:25:04;22.40;1.00
2967;DHT22;1493;51.496;7.210;2023-06-19T04:27:31;22.30;85.50
2967;DHT22;1493;51.496;7.210;2023-06-19T04:29:58;22.30;24.80
2967;DHT22;1493;51.496;7.210;2023-06-19T04:32:25;22.30;43.10
2967;DHT22;1493;51.496;7.210;2023-06-19T04:34:51;22.20;72.50
2967;DHT22;1493;51.496;7.210;2023-06-19T04:37:20;22.20;99.90
2967;DHT22;1493;51.496;7.210;2023-06-19T04:39:46;22.10;99.90
2967;DHT22;1493;51.496;7.210;2023-06-19T04:42:13;22.20;99.90
2967;DHT22;1493;51.496;7.210;2023-06-19T04:44:45;22.20;99.90
2967;DHT22;1493;51.496;7.210;2023-06-19T04:47:12;22.20;99.90
2967;DHT22;1493;51.496;7.210;2023-06-19T04:49:38;22.20;99.90
2967;DHT22;1493;51.496;7.210;2023-06-19T04:52:06;22.10;99.90
2967;DHT22;1493;51.496;7.210;2023-06-19T04:54:34;22.10;99.90
2967;DHT22;1493;51.496;7.210;2023-06-19T04:57:01;22.00;99.90
2967;DHT22;1493;51.496;7.210;2023-06-19T04:59:28;22.00;99.90
2967;DHT22;1493;51.496;7.210;2023-06-19T05:01:56;22.00;1.00
2967;DHT22;1493;51.496;7.210;2023-06-19T05:04:23;21.90;1.00
2967;DHT22;1493;51.496;7.210;2023-06-19T05:06:50;22.00;1.00
2967;DHT22;1493;51.496;7.210;2023-06-19T05:09:17;21.90;1.00
2967;DHT22;1493;51.496;7.210;2023-06-19T05:11:45;22.00;1.00
2967;DHT22;1493;51.496;7.210;2023-06-19T05:14:11;21.90;1.00
2967;DHT22;1493;51.496;7.210;2023-06-19T05:16:39;22.00;99.90
2967;DHT22;1493;51.496;7.210;2023-06-19T05:19:06;22.00;1.00
2967;DHT22;1493;51.496;7.210;2023-06-19T05:21:33;22.00;34.80
2967;DHT22;1493;51.496;7.210;2023-06-19T05:24:00;22.10;1.00
2967;DHT22;1493;51.496;7.210;2023-06-19T05:26:27;22.10;1.00
2967;DHT22;1493;51.496;7.210;2023-06-19T05:28:55;22.10;1.00
2967;DHT22;1493;51.496;7.210;2023-06-19T05:31:22;22.20;25.90
2967;DHT22;1493;51.496;7.210;2023-06-19T05:33:48;22.10;1.00
2967;DHT22;1493;51.496;7.210;2023-06-19T05:36:16;22.00;39.10
2967;DHT22;1493;51.496;7.210;2023-06-19T05:38:44;22.10;1.00
2967;DHT22;1493;51.496;7.210;2023-06-19T05:41:13;22.10;1.00
2967;DHT22;1493;51.496;7.210;2023-06-19T05:43:41;22.30;1.00
2967;DHT22;1493;51.496;7.210;2023-06-19T05:46:10;22.40;1.00
2967;DHT22;1493;51.496;7.210;2023-06-19T05:48:37;22.40;1.00
2967;DHT22;1493;51.496;7.210;2023-06-19T05:51:04;22.30;1.00
2967;DHT22;1493;51.496;7.210;2023-06-19T05:53:32;22.30;1.00
2967;DHT22;1493;51.496;7.210;2023-06-19T05:55:59;22.40;1.00
2967;DHT22;1493;51.496;7.210;2023-06-19T05:58:26;22.40;1.00
2967;DHT22;1493;51.496;7.210;2023-06-19T06:00:53;22.20;1.00
2967;DHT22;1493;51.496;7.210;2023-06-19T06:03:24;22.40;1.00
2967;DHT22;1493;51.496;7.210;2023-06-19T06:05:51;22.30;1.00
2967;DHT22;1493;51.496;7.210;2023-06-19T06:08:18;22.40;1.00
2967;DHT22;1493;51.496;7.210;2023-06-19T06:10:45;22.40;1.00
2967;DHT22;1493;51.496;7.210;2023-06-19T06:13:13;22.30;1.00
2967;DHT22;1493;51.496;7.210;2023-06-19T06:15:40;22.30;1.00
2967;DHT22;1493;51.496;7.210;2023-06-19T06:18:07;22.30;1.00
2967;DHT22;1493;51.496;7.210;2023-06-19T06:20:35;22.30;1.00
2967;DHT22;1493;51.496;7.210;2023-06-19T06:23:02;22.40;1.00
2967;DHT22;1493;51.496;7.210;2023-06-19T06:25:31;22.50;1.00
2967;DHT22;1493;51.496;7.210;2023-06-19T06:27:57;22.50;99.90
2967;DHT22;1493;51.496;7.210;2023-06-19T06:30:24;22.50;99.90
2967;DHT22;1493;51.496;7.210;2023-06-19T06:32:53;22.50;1.00
2967;DHT22;1493;51.496;7.210;2023-06-19T06:35:19;22.50;1.00
2967;DHT22;1493;51.496;7.210;2023-06-19T06:37:48;22.60;99.90
2967;DHT22;1493;51.496;7.210;2023-06-19T06:40:15;22.60;1.00
2967;DHT22;1493;51.496;7.210;2023-06-19T06:42:42;22.60;1.00
2967;DHT22;1493;51.496;7.210;2023-06-19T06:45:09;22.80;1.00
2967;DHT22;1493;51.496;7.210;2023-06-19T06:47:36;22.90;99.90
2967;DHT22;1493;51.496;7.210;2023-06-19T06:50:06;23.00;1.00
2967;DHT22;1493;51.496;7.210;2023-06-19T06:52:33;23.10;99.90
2967;DHT22;1493;51.496;7.210;2023-06-19T06:55:01;23.10;99.90
2967;DHT22;1493;51.496;7.210;2023-06-19T06:57:28;23.20;1.00
2967;DHT22;1493;51.496;7.210;2023-06-19T06:59:55;23.10;99.90
2967;DHT22;1493;51.496;7.210;2023-06-19T07:02:21;23.20;99.90
2967;DHT22;1493;51.496;7.210;2023-06-19T07:04:49;23.30;99.90
2967;DHT22;1493;51.496;7.210;2023-06-19T07:07:16;23.20;99.90
2967;DHT22;1493;51.496;7.210;2023-06-19T07:09:43;23.20;99.90
2967;DHT22;1493;51.496;7.210;2023-06-19T07:12:11;23.20;99.90
2967;DHT22;1493;51.496;7.210;2023-06-19T07:14:38;23.20;99.90
2967;DHT22;1493;51.496;7.210;2023-06-19T07:17:05;23.20;99.90
2967;DHT22;1493;51.496;7.210;2023-06-19T07:19:32;23.10;99.90
2967;DHT22;1493;51.496;7.210;2023-06-19T07:21:59;23.20;99.90
2967;DHT22;1493;51.496;7.210;2023-06-19T07:24:26;23.20;99.90
2967;DHT22;1493;51.496;7.210;2023-06-19T07:26:53;23.20;99.90
2967;DHT22;1493;51.496;7.210;2023-06-19T07:29:21;23.10;99.90
2967;DHT22;1493;51.496;7.210;2023-06-19T07:31:48;23.10;99.90
2967;DHT22;1493;51.496;7.210;2023-06-19T07:34:15;23.20;99.90
2967;DHT22;1493;51.496;7.210;2023-06-19T07:36:42;23.10;99.90
2967;DHT22;1493;51.496;7.210;2023-06-19T07:39:09;23.00;99.90
2967;DHT22;1493;51.496;7.210;2023-06-19T07:41:35;22.90;99.90
2967;DHT22;1493;51.496;7.210;2023-06-19T07:44:03;22.90;1.00
2967;DHT22;1493;51.496;7.210;2023-06-19T07:46:31;22.80;1.00
2967;DHT22;1493;51.496;7.210;2023-06-19T07:48:58;22.70;99.90
2967;DHT22;1493;51.496;7.210;2023-06-19T07:51:24;22.80;1.00
2967;DHT22;1493;51.496;7.210;2023-06-19T07:53:51;22.90;1.00
2967;DHT22;1493;51.496;7.210;2023-06-19T07:56:18;22.80;99.90
2967;DHT22;1493;51.496;7.210;2023-06-19T07:58:45;22.80;4.30
2967;DHT22;1493;51.496;7.210;2023-06-19T08:01:12;22.70;1.00
2967;DHT22;1493;51.496;7.210;2023-06-19T08:03:41;22.70;99.90
2967;DHT22;1493;51.496;7.210;2023-06-19T08:06:08;22.60;1.00
2967;DHT22;1493;51.496;7.210;2023-06-19T08:08:35;22.60;99.90
2967;DHT22;1493;51.496;7.210;2023-06-19T08:11:02;22.60;99.90
2967;DHT22;1493;51.496;7.210;2023-06-19T08:13:29;22.80;99.90
2967;DHT22;1493;51.496;7.210;2023-06-19T08:15:56;23.00;1.00
2967;DHT22;1493;51.496;7.210;2023-06-19T08:18:23;23.20;99.90
2967;DHT22;1493;51.496;7.210;2023-06-19T08:20:51;23.50;99.90
2967;DHT22;1493;51.496;7.210;2023-06-19T08:23:18;23.60;1.00
2967;DHT22;1493;51.496;7.210;2023-06-19T08:25:44;23.80;36.10
2967;DHT22;1493;51.496;7.210;2023-06-19T08:28:11;23.90;1.00
2967;DHT22;1493;51.496;7.210;2023-06-19T08:30:38;23.90;99.90
2967;DHT22;1493;51.496;7.210;2023-06-19T08:33:05;24.20;99.90
2967;DHT22;1493;51.496;7.210;2023-06-19T08:35:32;24.30;99.90
2967;DHT22;1493;51.496;7.210;2023-06-19T08:38:00;24.10;14.10
2967;DHT22;1493;51.496;7.210;2023-06-19T08:40:27;24.00;99.90
2967;DHT22;1493;51.496;7.210;2023-06-19T08:42:53;24.10;99.90
2967;DHT22;1493;51.496;7.210;2023-06-19T08:45:21;24.30;99.90
2967;DHT22;1493;51.496;7.210;2023-06-19T08:47:48;24.40;99.90
2967;DHT22;1493;51.496;7.210;2023-06-19T08:50:15;24.20;42.10
2967;DHT22;1493;51.496;7.210;2023-06-19T08:52:42;24.00;67.00
2967;DHT22;1493;51.496;7.210;2023-06-19T08:55:10;23.70;98.90
2967;DHT22;1493;51.496;7.210;2023-06-19T08:57:38;23.50;99.90
2967;DHT22;1493;51.496;7.210;2023-06-19T09:00:06;23.40;99.90
2967;DHT22;1493;51.496;7.210;2023-06-19T09:02:40;23.40;99.90
2967;DHT22;1493;51.496;7.210;2023-06-19T09:05:12;23.60;99.90
2967;DHT22;1493;51.496;7.210;2023-06-19T09:07:40;23.80;99.90
2967;DHT22;1493;51.496;7.210;2023-06-19T09:10:17;24.00;92.50
2967;DHT22;1493;51.496;7.210;2023-06-19T09:12:55;24.20;1.00
2967;DHT22;1493;51.496;7.210;2023-06-19T09:15:22;24.20;1.00
2967;DHT22;1493;51.496;7.210;2023-06-19T09:18:00;24.10;1.00
2967;DHT22;1493;51.496;7.210;2023-06-19T09:20:27;24.40;1.00
2967;DHT22;1493;51.496;7.210;2023-06-19T09:22:54;24.40;1.00
2967;DHT22;1493;51.496;7.210;2023-06-19T09:25:23;24.50;1.00
2967;DHT22;1493;51.496;7.210;2023-06-19T09:27:52;24.70;1.00
2967;DHT22;1493;51.496;7.210;2023-06-19T09:30:19;25.00;1.00
2967;DHT22;1493;51.496;7.210;2023-06-19T09:32:46;25.30;1.00
2967;DHT22;1493;51.496;7.210;2023-06-19T09:35:13;25.50;1.00
2967;DHT22;1493;51.496;7.210;2023-06-19T09:37:41;25.60;1.00
2967;DHT22;1493;51.496;7.210;2023-06-19T09:40:08;25.60;1.00
2967;DHT22;1493;51.496;7.210;2023-06-19T09:42:38;26.00;1.00
2967;DHT22;1493;51.496;7.210;2023-06-19T09:45:07;26.00;1.00
2967;DHT22;1493;51.496;7.210;2023-06-19T09:47:36;26.20;1.00
2967;DHT22;1493;51.496;7.210;2023-06-19T09:50:05;26.50;1.00
2967;DHT22;1493;51.496;7.210;2023-06-19T09:52:33;26.30;1.00
2967;DHT22;1493;51.496;7.210;2023-06-19T09:55:02;26.40;1.00
2967;DHT22;1493;51.496;7.210;2023-06-19T09:57:30;26.60;1.00
2967;DHT22;1493;51.496;7.210;2023-06-19T09:59:59;27.10;1.00
2967;DHT22;1493;51.496;7.210;2023-06-19T10:02:35;27.30;1.00
2967;DHT22;1493;51.496;7.210;2023-06-19T10:05:02;27.00;1.00
2967;DHT22;1493;51.496;7.210;2023-06-19T10:07:33;26.70;1.00
2967;DHT22;1493;51.496;7.210;2023-06-19T10:10:02;26.30;1.00
2967;DHT22;1493;51.496;7.210;2023-06-19T10:12:39;26.00;1.00
2967;DHT22;1493;51.496;7.210;2023-06-19T10:15:16;26.00;1.00
2967;DHT22;1493;51.496;7.210;2023-06-19T10:17:46;26.10;1.00
2967;DHT22;1493;51.496;7.210;2023-06-19T10:20:24;26.60;1.00
2967;DHT22;1493;51.496;7.210;2023-06-19T10:22:52;26.90;1.00
2967;DHT22;1493;51.496;7.210;2023-06-19T10:25:21;27.60;1.00
2967;DHT22;1493;51.496;7.210;2023-06-19T10:27:48;27.60;99.90
2967;DHT22;1493;51.496;7.210;2023-06-19T10:30:19;27.30;99.90
2967;DHT22;1493;51.496;7.210;2023-06-19T10:32:46;26.80;99.90
2967;DHT22;1493;51.496;7.210;2023-06-19T10:35:14;27.20;99.90
2967;DHT22;1493;51.496;7.210;2023-06-19T10:37:42;27.50;99.90
2967;DHT22;1493;51.496;7.210;2023-06-19T10:40:09;27.60;99.90
2967;DHT22;1493;51.496;7.210;2023-06-19T10:42:38;27.60;99.90
2967;DHT22;1493;51.496;7.210;2023-06-19T10:45:07;27.70;99.90
2967;DHT22;1493;51.496;7.210;2023-06-19T10:47:38;27.90;99.90
2967;DHT22;1493;51.496;7.210;2023-06-19T10:50:09;28.40;99.90
2967;DHT22;1493;51.496;7.210;2023-06-19T10:52:35;28.70;99.90
2967;DHT22;1493;51.496;7.210;2023-06-19T10:55:04;28.90;99.90
2967;DHT22;1493;51.496;7.210;2023-06-19T10:57:31;29.00;99.90
2967;DHT22;1493;51.496;7.210;2023-06-19T10:59:58;29.30;99.90
2967;DHT22;1493;51.496;7.210;2023-06-19T11:02:25;29.10;99.90
2967;DHT22;1493;51.496;7.210;2023-06-19T11:04:54;29.00;99.90
2967;DHT22;1493;51.496;7.210;2023-06-19T11:07:22;28.60;99.90
2967;DHT22;1493;51.496;7.210;2023-06-19T11:09:49;29.00;99.90
2967;DHT22;1493;51.496;7.210;2023-06-19T11:12:19;29.40;99.90
2967;DHT22;1493;51.496;7.210;2023-06-19T11:14:47;29.40;99.90
2967;DHT22;1493;51.496;7.210;2023-06-19T11:17:14;29.10;99.90
2967;DHT22;1493;51.496;7.210;2023-06-19T11:19:41;29.20;99.90
2967;DHT22;1493;51.496;7.210;2023-06-19T11:22:11;29.30;99.90
2967;DHT22;1493;51.496;7.210;2023-06-19T11:24:43;29.40;99.90
2967;DHT22;1493;51.496;7.210;2023-06-19T11:27:18;29.40;99.90
2967;DHT22;1493;51.496;7.210;2023-06-19T11:29:45;29.60;99.90
2967;DHT22;1493;51.496;7.210;2023-06-19T11:32:14;29.80;99.90
2967;DHT22;1493;51.496;7.210;2023-06-19T11:34:41;29.80;99.90
2967;DHT22;1493;51.496;7.210;2023-06-19T11:37:14;29.80;99.90
2967;DHT22;1493;51.496;7.210;2023-06-19T11:39:43;29.90;99.90
2967;DHT22;1493;51.496;7.210;2023-06-19T11:42:10;29.80;99.90
2967;DHT22;1493;51.496;7.210;2023-06-19T11:44:52;29.60;99.90
2967;DHT22;1493;51.496;7.210;2023-06-19T11:47:20;29.90;99.90
2967;DHT22;1493;51.496;7.210;2023-06-19T11:49:48;30.20;99.90
2967;DHT22;1493;51.496;7.210;2023-06-19T11:52:16;30.60;99.90
2967;DHT22;1493;51.496;7.210;2023-06-19T11:54:43;31.00;99.90
2967;DHT22;1493;51.496;7.210;2023-06-19T11:57:10;30.80;99.90
2967;DHT22;1493;51.496;7.210;2023-06-19T11:59:38;30.70;99.90
2967;DHT22;1493;51.496;7.210;2023-06-19T12:02:06;31.20;99.90
2967;DHT22;1493;51.496;7.210;2023-06-19T12:04:33;31.90;99.90
2967;DHT22;1493;51.496;7.210;2023-06-19T12:07:00;32.40;99.90
2967;DHT22;1493;51.496;7.210;2023-06-19T12:09:30;32.50;99.90
2967;DHT22;1493;51.496;7.210;2023-06-19T12:11:57;31.90;99.90
2967;DHT22;1493;51.496;7.210;2023-06-19T12:14:26;32.10;99.90
2967;DHT22;1493;51.496;7.210;2023-06-19T12:16:53;31.80;99.90
2967;DHT22;1493;51.496;7.210;2023-06-19T12:19:21;31.70;99.90
2967;DHT22;1493;51.496;7.210;2023-06-19T12:21:48;32.00;99.90
2967;DHT22;1493;51.496;7.210;2023-06-19T12:24:15;32.40;99.90
2967;DHT22;1493;51.496;7.210;2023-06-19T12:26:43;32.30;99.90
2967;DHT22;1493;51.496;7.210;2023-06-19T12:29:10;31.70;99.90
2967;DHT22;1493;51.496;7.210;2023-06-19T12:31:37;31.40;99.90
2967;DHT22;1493;51.496;7.210;2023-06-19T12:34:04;31.60;99.90
2967;DHT22;1493;51.496;7.210;2023-06-19T12:36:31;31.40;99.90
2967;DHT22;1493;51.496;7.210;2023-06-19T12:38:59;31.60;99.90
2967;DHT22;1493;51.496;7.210;2023-06-19T12:41:28;31.20;99.90
2967;DHT22;1493;51.496;7.210;2023-06-19T12:43:56;30.80;99.90
2967;DHT22;1493;51.496;7.210;2023-06-19T12:46:23;30.70;99.90
2967;DHT22;1493;51.496;7.210;2023-06-19T12:48:50;31.00;99.90
2967;DHT22;1493;51.496;7.210;2023-06-19T12:51:17;31.40;99.90
2967;DHT22;1493;51.496;7.210;2023-06-19T12:53:44;31.70;99.90
2967;DHT22;1493;51.496;7.210;2023-06-19T12:56:12;31.70;99.90
2967;DHT22;1493;51.496;7.210;2023-06-19T12:58:39;31.50;99.90
2967;DHT22;1493;51.496;7.210;2023-06-19T13:01:07;31.40;99.90
2967;DHT22;1493;51.496;7.210;2023-06-19T13:03:34;31.40;99.90
2967;DHT22;1493;51.496;7.210;2023-06-19T13:06:01;31.00;99.90
2967;DHT22;1493;51.496;7.210;2023-06-19T13:08:28;30.60;99.90
2967;DHT22;1493;51.496;7.210;2023-06-19T13:10:55;30.20;99.90
2967;DHT22;1493;51.496;7.210;2023-06-19T13:13:21;29.90;99.90
2967;DHT22;1493;51.496;7.210;2023-06-19T13:15:48;29.80;99.90
2967;DHT22;1493;51.496;7.210;2023-06-19T13:18:17;29.80;99.90
2967;DHT22;1493;51.496;7.210;2023-06-19T13:20:45;29.70;99.90
2967;DHT22;1493;51.496;7.210;2023-06-19T13:23:13;29.80;99.90
2967;DHT22;1493;51.496;7.210;2023-06-19T13:25:40;30.30;99.90
2967;DHT22;1493;51.496;7.210;2023-06-19T13:28:07;31.10;99.90
2967;DHT22;1493;51.496;7.210;2023-06-19T13:30:34;31.70;99.90
2967;DHT22;1493;51.496;7.210;2023-06-19T13:33:00;32.20;99.90
2967;DHT22;1493;51.496;7.210;2023-06-19T13:35:29;32.60;99.90
2967;DHT22;1493;51.496;7.210;2023-06-19T13:37:57;33.00;99.90
2967;DHT22;1493;51.496;7.210;2023-06-19T13:40:25;33.40;99.90
2967;DHT22;1493;51.496;7.210;2023-06-19T13:42:52;33.70;99.90
2967;DHT22;1493;51.496;7.210;2023-06-19T13:45:18;33.80;99.90
2967;DHT22;1493;51.496;7.210;2023-06-19T13:47:45;33.70;99.90
2967;DHT22;1493;51.496;7.210;2023-06-19T13:50:12;33.80;99.90
2967;DHT22;1493;51.496;7.210;2023-06-19T13:52:45;34.20;99.90
2967;DHT22;1493;51.496;7.210;2023-06-19T13:55:12;34.50;99.90
2967;DHT22;1493;51.496;7.210;2023-06-19T13:57:39;34.30;99.90
2967;DHT22;1493;51.496;7.210;2023-06-19T14:00:08;34.50;99.90
2967;DHT22;1493;51.496;7.210;2023-06-19T14:02:36;34.90;99.90
2967;DHT22;1493;51.496;7.210;2023-06-19T14:05:03;34.60;99.90
2967;DHT22;1493;51.496;7.210;2023-06-19T14:07:30;34.70;99.90
2967;DHT22;1493;51.496;7.210;2023-06-19T14:10:01;34.60;99.90
2967;DHT22;1493;51.496;7.210;2023-06-19T14:12:28;33.80;99.90
2967;DHT22;1493;51.496;7.210;2023-06-19T14:14:55;32.90;99.90
2967;DHT22;1493;51.496;7.210;2023-06-19T14:17:23;32.70;99.90
2967;DHT22;1493;51.496;7.210;2023-06-19T14:19:50;32.40;99.90
2967;DHT22;1493;51.496;7.210;2023-06-19T14:22:17;33.00;99.90
2967;DHT22;1493;51.496;7.210;2023-06-19T14:24:44;33.40;99.90
2967;DHT22;1493;51.496;7.210;2023-06-19T14:27:12;34.30;99.90
2967;DHT22;1493;51.496;7.210;2023-06-19T14:29:39;35.10;99.90
2967;DHT22;1493;51.496;7.210;2023-06-19T14:32:06;35.40;99.90
2967;DHT22;1493;51.496;7.210;2023-06-19T14:34:33;35.90;99.90
2967;DHT22;1493;51.496;7.210;2023-06-19T14:37:00;36.10;99.90
2967;DHT22;1493;51.496;7.210;2023-06-19T14:39:27;35.60;99.90
2967;DHT22;1493;51.496;7.210;2023-06-19T14:41:54;34.30;99.90
2967;DHT22;1493;51.496;7.210;2023-06-19T14:44:24;34.60;99.90
2967;DHT22;1493;51.496;7.210;2023-06-19T14:46:51;34.90;99.90
2967;DHT22;1493;51.496;7.210;2023-06-19T14:49:20;35.30;99.90
2967;DHT22;1493;51.496;7.210;2023-06-19T14:51:47;35.20;99.90
2967;DHT22;1493;51.496;7.210;2023-06-19T14:54:14;34.40;99.90
2967;DHT22;1493;51.496;7.210;2023-06-19T14:56:43;33.80;99.90
2967;DHT22;1493;51.496;7.210;2023-06-19T14:59:10;34.10;99.90
2967;DHT22;1493;51.496;7.210;2023-06-19T15:01:38;34.40;99.90
2967;DHT22;1493;51.496;7.210;2023-06-19T15:04:05;34.40;99.90
2967;DHT22;1493;51.496;7.210;2023-06-19T15:06:32;34.40;99.90
2967;DHT22;1493;51.496;7.210;2023-06-19T15:08:59;34.20;99.90
2967;DHT22;1493;51.496;7.210;2023-06-19T15:11:26;33.90;99.90
2967;DHT22;1493;51.496;7.210;2023-06-19T15:13:53;33.80;99.90
2967;DHT22;1493;51.496;7.210;2023-06-19T15:16:20;33.70;99.90
2967;DHT22;1493;51.496;7.210;2023-06-19T15:18:49;33.60;99.90
2967;DHT22;1493;51.496;7.210;2023-06-19T15:21:18;33.70;99.90
2967;DHT22;1493;51.496;7.210;2023-06-19T15:23:45;33.50;99.90
2967;DHT22;1493;51.496;7.210;2023-06-19T15:26:12;33.70;99.90
2967;DHT22;1493;51.496;7.210;2023-06-19T15:28:39;33.40;99.90
2967;DHT22;1493;51.496;7.210;2023-06-19T15:31:06;33.20;99.90
2967;DHT22;1493;51.496;7.210;2023-06-19T15:33:36;33.20;99.90
2967;DHT22;1493;51.496;7.210;2023-06-19T15:36:06;33.20;99.90
2967;DHT22;1493;51.496;7.210;2023-06-19T15:38:33;33.00;99.90
2967;DHT22;1493;51.496;7.210;2023-06-19T15:41:00;32.70;99.90
2967;DHT22;1493;51.496;7.210;2023-06-19T15:43:27;32.50;99.90
2967;DHT22;1493;51.496;7.210;2023-06-19T15:45:56;32.10;99.90
2967;DHT22;1493;51.496;7.210;2023-06-19T15:48:23;32.20;99.90
2967;DHT22;1493;51.496;7.210;2023-06-19T15:50:50;32.20;99.90
2967;DHT22;1493;51.496;7.210;2023-06-19T15:53:18;32.00;99.90
2967;DHT22;1493;51.496;7.210;2023-06-19T15:55:45;32.10;99.90
2967;DHT22;1493;51.496;7.210;2023-06-19T15:58:12;31.80;99.90
2967;DHT22;1493;51.496;7.210;2023-06-19T16:00:39;32.10;99.90
2967;DHT22;1493;51.496;7.210;2023-06-19T16:03:06;32.10;99.90
2967;DHT22;1493;51.496;7.210;2023-06-19T16:05:33;31.70;99.90
2967;DHT22;1493;51.496;7.210;2023-06-19T16:08:00;31.70;99.90
2967;DHT22;1493;51.496;7.210;2023-06-19T16:10:29;31.60;99.90
2967;DHT22;1493;51.496;7.210;2023-06-19T16:12:56;31.50;99.90
2967;DHT22;1493;51.496;7.210;2023-06-19T16:15:23;31.40;99.90
2967;DHT22;1493;51.496;7.210;2023-06-19T16:17:53;31.30;99.90
2967;DHT22;1493;51.496;7.210;2023-06-19T16:20:21;31.10;99.90
2967;DHT22;1493;51.496;7.210;2023-06-19T16:22:48;30.90;99.90
2967;DHT22;1493;51.496;7.210;2023-06-19T16:25:15;30.80;99.90
2967;DHT22;1493;51.496;7.210;2023-06-19T16:27:44;30.70;99.90
2967;DHT22;1493;51.496;7.210;2023-06-19T16:30:25;30.40;99.90
2967;DHT22;1493;51.496;7.210;2023-06-19T16:33:07;30.30;99.90
2967;DHT22;1493;51.496;7.210;2023-06-19T16:35:34;30.10;99.90
2967;DHT22;1493;51.496;7.210;2023-06-19T16:38:01;29.80;99.90
2967;DHT22;1493;51.496;7.210;2023-06-19T16:40:28;29.70;99.90
2967;DHT22;1493;51.496;7.210;2023-06-19T16:42:56;29.50;99.90
2967;DHT22;1493;51.496;7.210;2023-06-19T16:45:24;29.40;99.90
2967;DHT22;1493;51.496;7.210;2023-06-19T16:47:52;29.30;99.90
2967;DHT22;1493;51.496;7.210;2023-06-19T16:50:19;29.20;99.90
2967;DHT22;1493;51.496;7.210;2023-06-19T16:52:46;29.10;99.90